CYFB

Details ICAO CYFB (YFB)
Name Iqaluit
Region Canada
Timezone America/Iqaluit (UTC-4.0)
Plans Departing 170
Arriving 202
Stats Elevation 110 ft / 34 m (AMSL)
Location 63.756565° -68.556058°
Runways 1
Magnetic Variation 27.375° W
Sunrise 2018-05-21 07:06:36 UTC / 2018-05-21 03:06:36 Local
Sunset 2018-05-22 01:57:54 UTC / 2018-05-21 21:57:54 Local
Advertisement - Login to hide

Runways

ID Width Length Bearing (true) Bearing (mag) Surface Threshold Offset Overrun Length
17 200 ft / 61 m 8,605 ft / 2,623 m 135.58° 162.95° Asphalt 0 ft / 0 m 210 ft / 64 m
35 200 ft / 61 m 8,605 ft / 2,623 m 315.62° 342.99° Asphalt 0 ft / 0 m 243 ft / 74 m

Map

Weather


0- 5 10 15 20 25 30 35+ Temperature / ° C

Clouds and Precipitation
Forecast for 2018-05-22 00:00 UTC. Updated 3 hours ago

Ground ~20,000 ft ~40,000 ft Winds

METAR

CYFB 220200Z 33007KT 30SM OVC041 M06/M11 A2986 RMK SC8 SLP116

TAF

TAF CYFB 212338Z 2200/2224 33012KT P6SM FEW020 BKN040 TEMPO 2200/2212 P6SM -SN BKN020 OVC040 FM221200 32015KT P6SM FEW020 BKN040 TEMPO 2212/2224 P6SM -SN BKN020 OVC040 BECMG 2213/2215 33020KT RMK NXT FCST BY 220600Z

Frequencies

Recorded 122.20 MHz FSS
Unicom 126.70 MHz MULTICOM
Tower 134.55 MHz CNTR
Recorded 126.70 MHz FSS
Unicom 126.90 MHz MULTICOM
Warning: Do not use this data for real-world aviation or navigation. No guarantee of current accuracy is given.